Route Details

Aircraft Information
Group: North America Light
Types: B738, B752, B762
Route Data
Distance: 1109nm
Duration: 3h 00m
Origin METAR: MMMX 010555Z 07006KT 9SM SKC 15/01 A3032 NOSIG RMK HZY
Dest. METAR: KMIA 010553Z 11004KT 10SM CLR 23/20 A3017 RMK AO2 SLP218 T02280200 10250 20228 58008 $
Freight Data
(for Feb 1, 2023)
Load Factor:
33%
Manifested Cargo: 20,263lbs
Financial History
Total Freight: 1,525,255lbs
Average Load: 0lbs/flt
Fuel Used: 537,827lbs
Avg. Fuel Used: 0lbs/flt
Fuel Expense: $385,030
Avg. Fuel Expense: $0
Avg. Fuel Cost: $0/lbs
Total Gross Income: $4,023,961
Pilot Pay: $4,469
Total Expenses: $540,107
Total Revenue: $3,084,565
Average Revenue: $0

Capitol Logistics 749




MMMX
Benito Juárez International Airport
Mexico City, MX
KMIA
Miami International Airport
Miami, US

Activity Log

Date Flight Route Aircraft Duration
09/16/2022 CPX749 NOXO2A NOXOS UT106 AXOMU UM346 CANOA SNDBR2 B738 2h 50m
08/26/2022 CPX749 Not Available B738 3h 12m
07/25/2022 CPX749 NOXO2A NOXOS UT106 AXOMU UM346 CANOA SNDBR2 B738 2h 46m
07/17/2022 CPX749 NOXOS2A NOXOS UT106 COFRE UM580 IRDOV M580 MARCI FROGZ2 B738 2h 56m
06/24/2022 CPX211 CCUDA M580 NATLE CYY SSCOT5 B744 3h 20m
02/21/2022 CPX211 CCUDA M580 NATLE CYY SSCOT5 B738 2h 47m
11/21/2021 CPX211 NOXO1A NOXOS UT106 AXOMU UM346 CANOA SNDBR1 B752 2h 43m
08/24/2021 CPX211 CCUDA M580 NATLE CYY SSCOT5 A30F 2h 50m
12/19/2019 CPX211 CCUDA M580 NATLE CYY SSCOT5 B763 2h 49m
10/14/2019 CPX211 APN7A APN UJ28 REXES UT17 AVALI UM580 NUBEL UR522 AXOMU UM346 CANOA Y196 LULLS EYW DVALL3 B763 2h 56m
09/14/2019 CPX211 CCUDA M580 NATLE CYY SSCOT5 B763 2h 37m
08/15/2019 CPX211 CCUDA M580 NATLE CYY SSCOT5 B763 2h 52m
08/06/2019 CPX211 CCUDA M580 NATLE CYY SSCOT5 B763 2h 31m
07/21/2019 CPX211 CCUDA M580 NATLE CYY SSCOT5 B763 4h 00m
07/10/2019 CPX211 APN7A APN UJ30 NAU UM580 IRDOV M580 MARCI SSCOT B763 2h 46m
06/29/2019 CPX211 APN7A APN UJ30 NAU UM580 IRDOV M580 MARCI SSCOT B763 2h 41m
06/16/2019 CPX211 CCUDA M580 NATLE CYY SSCOT5 B763 2h 47m
04/07/2019 CPX211 CCUDA M580 NATLE CYY SSCOT5 B763 2h 56m
02/05/2019 CPX211 APN7A APN UJ28 REXES UJ30 NAU UM580 NUBEL UR522 XOPGI UB646 CANOA EYW DVALL3 B763 2h 39m
01/02/2019 CPX211 CCUDA M580 NATLE CYY CYY9 B763 2h 41m
12/13/2018 CPX213 APN5B APN UJ28 REXES UJ30 NAU UM580 NUBEL UR522 XOPGI UB646 CANOA EYW DVALL3 B763 2h 29m